Latest Weather Observations for Narrandera Airport

IDN60801

Issued at 10:32 pm EDT Sunday 22 October 2017 (issued every 30 minutes, with the page automatically refreshed every 10 minutes)

About weather observations | Map of weather stations | Latest weather observations for NSW | Other Formats
Station Details ID: 074148 Name: NARRANDERA AIRPORT AWS Lat: -34.70 Lon: 146.51 Height: 145.0 m
Data from the previous 72 hours. | See also: Recent months at Narrandera Airport
Date/Time
EDT
Temp
°C
App
Temp
°C
Dew
Point
°C
Rel
Hum
%
Delta-T
°C
Wind Press
QNH
hPa
Press
MSL
hPa
Rain since
9am
mm
Dir  Spd
km/h
Gust
km/h
Spd
kts
Gust
kts
22/10:30pm 15.5 11.2 7.0 57 4.2 SSW 19 24 10 13 1016.8 1016.5 0.0
22/10:00pm 15.8 11.5 7.1 56 4.3 SW 19 26 10 14 1016.8 1016.5 0.0
22/09:30pm 16.1 12.5 6.8 54 4.6 SW 15 20 8 11 1016.6 1016.3 0.0
22/09:00pm 16.9 13.2 6.4 50 5.2 SW 15 24 8 13 1016.3 1016.0 0.0
22/08:30pm 17.3 13.9 5.9 47 5.6 SW 13 17 7 9 1015.9 1015.6 0.0
22/08:00pm 18.2 13.6 5.8 44 6.1 SW 19 24 10 13 1015.4 1015.1 0.0
22/07:30pm 18.8 14.2 5.6 42 6.5 SW 19 26 10 14 1015.1 1014.8 0.0
22/07:00pm 19.6 14.4 5.3 39 7.0 SSW 22 32 12 17 1014.6 1014.3 0.0
22/06:30pm 20.1 14.2 5.7 39 7.2 SW 26 32 14 17 1014.3 1014.0 0.0
22/06:00pm 20.2 14.9 5.1 37 7.4 SW 22 32 12 17 1014.1 1013.8 0.0
22/05:30pm 21.0 16.0 4.6 34 8.0 SW 20 32 11 17 1013.9 1013.6 0.0
22/05:00pm 21.6 15.9 4.7 33 8.3 SW 24 33 13 18 1013.7 1013.4 0.0
22/04:30pm 22.0 17.0 4.6 32 8.6 SW 20 30 11 16 1013.8 1013.5 0.0
22/04:00pm 22.3 17.2 3.9 30 9.0 SSW 20 35 11 19 1014.0 1013.7 0.0
22/03:30pm 22.1 17.1 3.7 30 8.9 SW 19 35 10 19 1014.1 1013.8 0.0
22/03:00pm 22.0 17.6 4.6 32 8.6 SW 17 32 9 17 1014.5 1014.2 0.0
22/02:30pm 21.3 17.0 5.2 35 8.0 SW 17 30 9 16 1014.8 1014.5 0.0
22/02:00pm 20.9 16.4 6.1 38 7.5 SW 19 30 10 16 1015.0 1014.7 0.0
22/01:30pm 20.1 15.5 6.5 41 6.9 SW 20 30 11 16 1015.3 1015.0 0.0
22/01:00pm 20.3 16.0 7.0 42 6.8 SSW 19 26 10 14 1015.6 1015.3 0.0
22/12:30pm 19.4 15.1 6.8 44 6.4 WSW 19 28 10 15 1016.0 1015.7 0.0
22/12:00pm 18.8 14.8 6.6 45 6.1 SW 17 26 9 14 1016.5 1016.2 0.0
22/11:30am 17.1 12.6 6.3 49 5.3 SSW 19 30 10 16 1016.8 1016.5 0.0
22/11:00am 16.6 12.7 7.0 53 4.8 SW 17 22 9 12 1016.7 1016.4 0.0
22/10:30am 15.5 11.9 6.8 56 4.3 SW 15 24 8 13 1016.7 1016.4 0.0
22/10:00am 14.1 11.2 6.5 60 3.7 WSW 11 20 6 11 1016.7 1016.4 0.0
22/09:30am 13.1 9.4 6.5 64 3.2 SW 15 20 8 11 1016.7 1016.4 0.0
22/09:00am 12.3 7.8 6.1 66 2.9 SW 19 26 10 14 1016.6 1016.3 0.0
22/08:30am 11.4 7.7 6.3 71 2.4 SW 15 20 8 11 1016.6 1016.3 0.0
22/08:00am 10.2 7.6 6.2 76 1.9 SW 9 13 5 7 1016.1 1015.8 0.0
22/07:30am 9.5 6.9 6.0 79 1.6 WSW 9 15 5 8 1016.4 1016.1 0.0
22/07:00am 8.8 6.2 5.9 82 1.3 SW 9 15 5 8 1016.4 1016.1 0.0
22/06:30am 8.4 5.7 5.7 83 1.2 WSW 9 17 5 9 1016.2 1015.9 0.0
22/06:00am 8.6 5.2 5.9 83 1.2 WSW 13 19 7 10 1016.0 1015.7 0.0
22/05:30am 8.6 5.5 5.7 82 1.3 WSW 11 19 6 10 1015.8 1015.5 0.0
22/05:00am 8.8 5.4 5.7 81 1.4 WSW 13 20 7 11 1015.6 1015.3 0.0
22/04:30am 9.1 5.7 5.7 79 1.6 WSW 13 19 7 10 1015.8 1015.5 0.0
22/04:00am 9.3 5.8 5.5 77 1.7 SW 13 20 7 11 1016.0 1015.7 0.0
22/03:30am 9.4 5.8 5.2 75 1.9 WSW 13 19 7 10 1016.2 1015.9 0.0
22/03:00am 9.7 6.1 5.1 73 2.1 WSW 13 20 7 11 1016.5 1016.2 0.0
22/02:30am 10.1 6.5 5.1 71 2.3 WSW 13 19 7 10 1016.7 1016.4 0.0
22/02:00am 10.3 7.0 4.7 68 2.5 SW 11 19 6 10 1017.0 1016.7 0.0
22/01:30am 10.9 8.0 4.6 65 2.9 WSW 9 15 5 8 1017.4 1017.1 0.0
22/01:00am 11.4 7.3 4.6 63 3.1 SW 15 24 8 13 1017.7 1017.4 0.0
22/12:30am 11.8 7.0 4.5 61 3.3 SW 19 28 10 15 1018.0 1017.8 0.0
22/12:00am 12.3 7.9 4.8 60 3.5 SW 17 26 9 14 1018.3 1018.1 0.0
 
Date/Time
EDT
Temp
°C
App
Temp
°C
Dew
Point
°C
Rel
Hum
%
Delta-T
°C
Wind Press
QNH
hPa
Press
MSL
hPa
Rain since
9am
mm
Dir  Spd
km/h
Gust
km/h
Spd
kts
Gust
kts
21/11:30pm 12.9 7.6 4.8 58 3.8 SSW 22 30 12 16 1018.4 1018.2 0.0
21/11:00pm 13.6 8.7 5.3 57 3.9 SSW 20 26 11 14 1018.5 1018.3 0.0
21/10:30pm 14.2 9.3 5.0 54 4.3 SSW 20 30 11 16 1018.4 1018.2 0.0
21/10:00pm 14.8 10.1 5.1 52 4.6 SSW 19 26 10 14 1018.4 1018.2 0.0
21/09:30pm 15.3 10.6 5.0 50 4.9 SSW 19 26 10 14 1018.5 1018.3 0.0
21/09:00pm 16.2 11.8 4.9 47 5.4 SSW 17 24 9 13 1018.4 1018.2 0.0
21/08:30pm 17.1 12.2 5.1 45 5.8 SW 20 28 11 15 1018.2 1018.0 0.0
21/08:00pm 18.0 13.0 4.6 41 6.4 SW 20 30 11 16 1018.0 1017.8 0.0
21/07:30pm 19.1 14.6 4.1 37 7.2 SW 17 22 9 12 1017.8 1017.6 0.0
21/07:00pm 19.9 15.3 3.6 34 7.8 SW 17 24 9 13 1017.7 1017.4 0.0
21/06:30pm 20.4 15.7 3.2 32 8.2 SW 17 32 9 17 1017.6 1017.3 0.0
21/06:00pm 21.7 16.6 4.3 32 8.5 SW 20 32 11 17 1017.6 1017.3 0.0
21/05:30pm 21.7 16.6 2.9 29 9.0 SW 19 30 10 16 1017.7 1017.4 0.0
21/05:00pm 22.0 16.8 2.2 27 9.3 SW 19 26 10 14 1017.9 1017.7 0.0
21/04:30pm 22.4 16.6 2.5 27 9.5 SW 22 32 12 17 1018.1 1017.9 0.0
21/04:00pm 22.2 17.0 2.3 27 9.4 SW 19 28 10 15 1018.3 1018.1 0.0
21/03:30pm 22.8 17.7 2.8 27 9.6 WSW 19 28 10 15 1018.7 1018.5 0.0
21/03:00pm 22.3 17.4 3.9 30 9.0 WSW 19 26 10 14 1019.2 1019.0 0.0
21/02:30pm 21.4 17.4 4.9 34 8.2 WSW 15 24 8 13 1019.8 1019.5 0.0
21/02:00pm 21.4 16.7 5.3 35 8.0 W 19 28 10 15 1020.2 1019.9 0.0
21/01:30pm 20.5 16.3 5.7 38 7.4 W 17 26 9 14 1020.6 1020.3 0.0
21/01:00pm 21.7 17.9 7.5 40 7.4 WSW 17 24 9 13 1021.1 1020.8 0.0
21/12:30pm 20.4 17.3 7.1 42 6.8 WSW 13 20 7 11 1021.5 1021.2 0.0
21/12:00pm 19.7 17.5 7.8 46 6.1 W 9 22 5 12 1022.0 1021.7 0.0
21/11:30am 19.6 17.6 8.6 49 5.8 SW 9 15 5 8 1022.4 1022.1 0.0
21/11:00am 18.6 17.1 8.6 52 5.2 SE 6 15 3 8 1022.5 1022.2 0.0
21/10:30am 17.2 15.6 7.8 54 4.8 NNE 6 11 3 6 1022.9 1022.6 0.0
21/10:00am 16.0 14.3 8.2 60 4.0 SW 7 11 4 6 1023.0 1022.7 0.0
21/09:30am 14.6 12.9 7.6 63 3.5 SSW 6 11 3 6 1022.9 1022.6 0.0
21/09:00am 12.7 10.3 7.2 69 2.7 SSW 9 13 5 7 1023.0 1022.7 0.2
21/08:30am 11.2 9.1 6.7 74 2.1 SSW 7 11 4 6 1023.2 1022.9 0.2
21/08:00am 9.6 7.4 6.0 78 1.7 SSW 7 9 4 5 1023.1 1022.8 0.2
21/07:30am 8.2 6.0 5.5 83 1.2 SW 6 7 3 4 1023.0 1022.7 0.2
21/07:00am 7.3 6.2 5.1 86 1.0 CALM 0 0 0 0 1022.8 1022.5 0.2
21/06:30am 6.6 5.4 4.8 88 0.8 CALM 0 0 0 0 1022.6 1022.3 0.2
21/06:00am 7.1 6.0 5.1 87 0.9 CALM 0 0 0 0 1022.6 1022.3 0.2
21/05:30am 7.5 6.4 5.0 84 1.1 CALM 0 0 0 0 1022.5 1022.2 0.2
21/05:00am 7.8 6.3 4.9 82 1.3 WSW 2 7 1 4 1022.5 1022.2 0.2
21/04:30am 8.3 6.0 4.9 79 1.5 WSW 6 7 3 4 1022.6 1022.3 0.2
21/04:00am 8.7 6.8 4.9 77 1.7 SW 4 9 2 5 1022.6 1022.3 0.2
21/03:30am 9.1 6.6 4.9 75 1.9 SSW 7 11 4 6 1022.7 1022.4 0.2
21/03:00am 9.5 7.1 5.1 74 2.0 SW 7 11 4 6 1023.0 1022.7 0.2
21/02:30am 9.9 7.5 5.1 72 2.2 SW 7 9 4 5 1023.2 1022.9 0.2
21/02:00am 10.1 7.3 5.1 71 2.3 SSW 9 11 5 6 1023.5 1023.2 0.2
21/01:30am 10.9 8.1 5.0 67 2.7 S 9 13 5 7 1023.6 1023.3 0.2
21/01:00am 11.6 7.2 5.0 64 3.0 SSW 17 20 9 11 1023.4 1023.1 0.2
21/12:30am 12.0 7.6 5.0 62 3.2 SSW 17 20 9 11 1023.5 1023.2 0.2
21/12:00am 12.3 8.3 5.0 61 3.4 SSW 15 22 8 12 1023.6 1023.3 0.2
 
Date/Time
EDT
Temp
°C
App
Temp
°C
Dew
Point
°C
Rel
Hum
%
Delta-T
°C
Wind Press
QNH
hPa
Press
MSL
hPa
Rain since
9am
mm
Dir  Spd
km/h
Gust
km/h
Spd
kts
Gust
kts
20/11:30pm 12.6 9.0 5.1 60 3.5 SW 13 20 7 11 1023.3 1023.0 0.2
20/11:00pm 13.0 9.1 5.2 59 3.6 SW 15 20 8 11 1023.2 1022.9 0.2
20/10:30pm 13.6 8.9 5.0 56 4.0 SW 19 24 10 13 1023.2 1022.9 0.2
20/10:00pm 14.3 9.6 5.1 54 4.3 SW 19 26 10 14 1023.1 1022.8 0.2
20/09:30pm 15.0 10.3 5.2 52 4.7 SW 19 32 10 17 1023.0 1022.7 0.2
20/09:00pm 15.7 10.8 5.0 49 5.1 SW 20 32 11 17 1022.9 1022.6 0.2
20/08:30pm 16.3 10.6 4.7 46 5.5 SW 24 33 13 18 1022.6 1022.3 0.2
20/08:00pm 17.1 12.1 3.8 41 6.2 SW 19 30 10 16 1022.1 1021.8 0.2
20/07:30pm 17.9 12.6 3.0 37 6.9 SW 20 35 11 19 1021.6 1021.3 0.2
20/07:00pm 18.9 12.4 2.7 34 7.5 SW 26 37 14 20 1021.4 1021.1 0.2
20/06:30pm 19.6 12.5 1.6 30 8.2 SW 28 41 15 22 1021.2 1020.9 0.2
20/06:19pm 19.7 12.7 1.7 30 8.3 SW 28 46 15 25 1021.3 1021.0 0.2
20/06:00pm 20.2 12.9 0.1 26 8.9 SW 28 37 15 20 1021.1 1020.8 0.2
20/05:30pm 20.6 13.4 1.0 27 8.9 SW 28 41 15 22 1020.9 1020.6 0.2
20/05:00pm 21.2 13.2 1.5 27 9.1 SSW 33 44 18 24 1020.7 1020.4 0.2
20/04:30pm 21.3 14.3 2.1 28 9.0 SSW 28 41 15 22 1020.6 1020.3 0.2
20/04:00pm 21.7 14.9 2.9 29 8.9 SW 28 39 15 21 1020.6 1020.3 0.2
20/03:39pm 21.0 13.8 2.8 30 8.6 SW 30 48 16 26 1020.9 1020.6 0.2
20/03:30pm 20.9 14.8 4.9 35 7.9 SW 26 35 14 19 1020.9 1020.6 0.2
20/03:00pm 21.3 15.6 4.8 34 8.1 SW 24 35 13 19 1021.2 1020.9 0.2
20/02:30pm 21.4 14.9 4.9 34 8.2 SSW 28 41 15 22 1021.6 1021.3 0.2
20/02:00pm 20.8 14.8 5.2 36 7.7 SW 26 35 14 19 1021.9 1021.6 0.2
20/01:30pm 21.0 14.7 3.7 32 8.3 SW 26 37 14 20 1022.0 1021.7 0.2
20/01:00pm 20.4 15.3 6.0 39 7.2 SW 22 35 12 19 1022.1 1021.8 0.2
20/12:30pm 20.1 13.4 5.7 39 7.2 SSW 30 43 16 23 1022.3 1022.0 0.2
20/12:00pm 19.5 14.6 6.9 44 6.4 SW 22 32 12 17 1022.4 1022.1 0.2
20/11:30am 18.7 14.4 7.8 49 5.6 SW 20 30 11 16 1022.7 1022.4 0.2
20/11:00am 17.3 12.7 8.2 55 4.7 SW 22 28 12 15 1023.1 1022.8 0.2
20/10:30am 16.0 11.0 8.0 59 4.1 SW 24 35 13 19 1023.1 1022.8 0.2
20/10:00am 15.0 9.2 7.8 62 3.6 SSW 28 35 15 19 1023.1 1022.8 0.2
20/09:30am 13.9 8.0 7.7 66 3.1 SW 28 37 15 20 1023.2 1022.9 0.2
20/09:00am 12.6 7.8 7.3 70 2.6 SW 22 32 12 17 1023.0 1022.7 4.6
20/08:30am 12.1 7.7 7.2 72 2.4 SSW 20 30 11 16 1022.9 1022.6 4.6
20/08:00am 11.4 6.8 6.7 73 2.2 SW 20 30 11 16 1022.6 1022.3 4.6
20/07:30am 11.2 6.6 6.3 72 2.3 SW 20 28 11 15 1022.5 1022.2 4.4
20/07:00am 11.5 6.9 6.4 71 2.4 SW 20 30 11 16 1022.0 1021.7 4.2
20/06:30am 11.9 7.3 6.4 69 2.6 SW 20 28 11 15 1021.8 1021.5 4.0
20/06:00am 13.0 8.2 8.7 75 2.2 SW 24 37 13 20 1021.4 1021.1 3.6
20/05:30am 14.1 10.4 10.3 78 2.0 SW 20 30 11 16 1020.7 1020.4 3.0
20/05:00am 15.0 11.0 10.4 74 2.4 SW 22 39 12 21 1020.4 1020.1 2.8
20/04:30am 15.8 11.0 11.8 77 2.2 SW 28 41 15 22 1020.1 1019.8 2.8
20/04:00am 16.9 13.8 14.5 86 1.4 SSW 24 32 13 17 1019.8 1019.5 2.8
20/03:30am 17.1 15.4 14.7 86 1.4 SW 17 26 9 14 1019.6 1019.3 2.8
20/03:00am 18.2 16.7 15.3 83 1.7 SW 17 26 9 14 1019.3 1019.1 2.8
20/02:30am 19.4 18.5 17.7 90 1.0 WSW 19 28 10 15 1019.2 1019.0 2.8
20/02:00am 19.6 22.7 19.6 100 0.0 SW 2 7 1 4 1019.6 1019.3 2.8
20/01:30am 19.4 22.7 19.1 98 0.2 CALM 0 0 0 0 1019.6 1019.3 2.8
20/01:00am 19.5 22.8 19.2 98 0.2 CALM 0 0 0 0 1020.0 1019.7 2.8
20/12:30am 19.6 21.8 19.6 100 0.0 N 7 11 4 6 1020.3 1020.0 2.8
20/12:00am 19.3 21.3 19.1 99 0.1 NE 7 11 4 6 1020.4 1020.1 2.8
 
Date/Time
EDT
Temp
°C
App
Temp
°C
Dew
Point
°C
Rel
Hum
%
Delta-T
°C
Wind Press
QNH
hPa
Press
MSL
hPa
Rain since
9am
mm
Dir  Spd
km/h
Gust
km/h
Spd
kts
Gust
kts
19/11:30pm 19.2 20.4 19.0 99 0.1 NE 11 13 6 7 1020.6 1020.3 2.8
19/11:00pm 19.0 20.4 18.7 98 0.2 NE 9 11 5 6 1020.6 1020.3 2.8

Other Formats:

Comma delimited format used in spreadsheet applications
http://www.bom.gov.au/fwo/IDN60801/IDN60801.95706.axf

JavaScript Object Notation format (JSON) in row-major order
http://www.bom.gov.au/fwo/IDN60801/IDN60801.95706.json